Helix, Oregon
Current Conditions -  °F | °C
As of 7:53 PM on Sunday 23 Nov 2014 (Local Time) from KPDT Reporting Station
Clear Clear  
Wind Chill: 37°   Ceiling: Unl
Heat Index: 44°   Visibility: 10mi
Dew Point: 37°   Wind: 15mph
Humidity: 76%   Direction: 260°W
Pressure: 30.21"   Gusts: NA
Location:  45.85°N, 118.66°W
Report Text: KPDT 240353Z 26013KT 10SM CLR 07/03 A3021 RMK AO2 SLP232 T00670028
Loading
Personal Weather Stations






























Interactive Weather Map New forecast layout! Learn more

10-Day Weather Forecast

Advertisements
Track Severe Weather on mobile